sensor_id;sensor_type;location;lat;lon;timestamp;pressure;altitude;pressure_sealevel;temperature;humidity
66021;BME280;52789;59.980;30.346;2023-08-20T00:00:07;102178.31;;;15.82;100.00
66021;BME280;52789;59.980;30.346;2023-08-20T00:02:35;102222.75;;;16.10;100.00
66021;BME280;52789;59.980;30.346;2023-08-20T00:05:02;102211.81;;;16.04;100.00
66021;BME280;52789;59.980;30.346;2023-08-20T00:07:30;102223.91;;;16.08;100.00
66021;BME280;52789;59.980;30.346;2023-08-20T00:09:56;102214.50;;;16.04;100.00
66021;BME280;52789;59.980;30.346;2023-08-20T00:12:21;102205.25;;;15.98;100.00
66021;BME280;52789;59.980;30.346;2023-08-20T00:15:03;102225.44;;;16.10;100.00
66021;BME280;52789;59.980;30.346;2023-08-20T00:17:36;102200.88;;;15.97;100.00
66021;BME280;52789;59.980;30.346;2023-08-20T00:20:04;102208.78;;;15.99;100.00
66021;BME280;52789;59.980;30.346;2023-08-20T00:22:37;102209.09;;;15.96;100.00
66021;BME280;52789;59.980;30.346;2023-08-20T00:25:03;102228.78;;;16.04;100.00
66021;BME280;52789;59.980;30.346;2023-08-20T00:27:32;102207.44;;;15.95;100.00
66021;BME280;52789;59.980;30.346;2023-08-20T00:29:57;102203.72;;;15.96;100.00
66021;BME280;52789;59.980;30.346;2023-08-20T00:32:23;102208.13;;;16.05;100.00
66021;BME280;52789;59.980;30.346;2023-08-20T00:34:48;102199.72;;;16.00;100.00
66021;BME280;52789;59.980;30.346;2023-08-20T00:37:14;102209.81;;;16.06;100.00
66021;BME280;52789;59.980;30.346;2023-08-20T00:39:40;102214.34;;;16.05;100.00
66021;BME280;52789;59.980;30.346;2023-08-20T00:42:06;102194.66;;;15.97;100.00
66021;BME280;52789;59.980;30.346;2023-08-20T00:44:33;102198.88;;;15.99;100.00
66021;BME280;52789;59.980;30.346;2023-08-20T00:47:02;102210.97;;;16.03;100.00
66021;BME280;52789;59.980;30.346;2023-08-20T00:49:30;102176.78;;;15.79;100.00
66021;BME280;52789;59.980;30.346;2023-08-20T00:51:56;102205.09;;;16.00;100.00
66021;BME280;52789;59.980;30.346;2023-08-20T00:54:22;102204.94;;;16.01;100.00
66021;BME280;52789;59.980;30.346;2023-08-20T00:56:49;102204.91;;;15.93;100.00
66021;BME280;52789;59.980;30.346;2023-08-20T00:59:16;102214.16;;;15.99;100.00
66021;BME280;52789;59.980;30.346;2023-08-20T01:01:41;102190.25;;;15.88;100.00
66021;BME280;52789;59.980;30.346;2023-08-20T01:04:07;102200.69;;;15.91;100.00
66021;BME280;52789;59.980;30.346;2023-08-20T01:09:04;102206.38;;;15.88;100.00
66021;BME280;52789;59.980;30.346;2023-08-20T01:11:37;102203.34;;;15.83;100.00
66021;BME280;52789;59.980;30.346;2023-08-20T01:14:14;102161.88;;;15.51;100.00
66021;BME280;52789;59.980;30.346;2023-08-20T01:16:39;102190.53;;;15.68;100.00
66021;BME280;52789;59.980;30.346;2023-08-20T01:19:06;102196.41;;;15.72;100.00
66021;BME280;52789;59.980;30.346;2023-08-20T01:22:01;102203.97;;;15.76;100.00
66021;BME280;52789;59.980;30.346;2023-08-20T01:24:47;102198.09;;;15.73;100.00
66021;BME280;52789;59.980;30.346;2023-08-20T01:30:23;102195.38;;;15.65;100.00
66021;BME280;52789;59.980;30.346;2023-08-20T01:32:53;102190.53;;;15.68;100.00
66021;BME280;52789;59.980;30.346;2023-08-20T01:35:19;102185.47;;;15.65;100.00
66021;BME280;52789;59.980;30.346;2023-08-20T01:37:45;102181.72;;;15.58;100.00
66021;BME280;52789;59.980;30.346;2023-08-20T01:40:10;102185.41;;;15.57;100.00
66021;BME280;52789;59.980;30.346;2023-08-20T01:42:40;102183.88;;;15.55;100.00
66021;BME280;52789;59.980;30.346;2023-08-20T01:45:06;102198.25;;;15.63;100.00
66021;BME280;52789;59.980;30.346;2023-08-20T01:47:33;102175.31;;;15.51;100.00
66021;BME280;52789;59.980;30.346;2023-08-20T01:49:58;102194.88;;;15.61;100.00
66021;BME280;52789;59.980;30.346;2023-08-20T01:52:24;102182.56;;;15.59;100.00
66021;BME280;52789;59.980;30.346;2023-08-20T01:54:50;102184.41;;;15.58;100.00
66021;BME280;52789;59.980;30.346;2023-08-20T01:57:15;102182.72;;;15.57;100.00
66021;BME280;52789;59.980;30.346;2023-08-20T01:59:40;102202.44;;;15.66;100.00
66021;BME280;52789;59.980;30.346;2023-08-20T02:02:06;102200.44;;;15.68;100.00
66021;BME280;52789;59.980;30.346;2023-08-20T02:04:32;102184.72;;;15.55;100.00
66021;BME280;52789;59.980;30.346;2023-08-20T02:06:58;102197.69;;;15.60;100.00
66021;BME280;52789;59.980;30.346;2023-08-20T02:09:23;102214.53;;;15.70;100.00
66021;BME280;52789;59.980;30.346;2023-08-20T02:11:50;102211.69;;;15.71;100.00
66021;BME280;52789;59.980;30.346;2023-08-20T02:14:16;102205.47;;;15.71;100.00
66021;BME280;52789;59.980;30.346;2023-08-20T02:16:42;102208.00;;;15.72;100.00
66021;BME280;52789;59.980;30.346;2023-08-20T02:19:07;102199.28;;;15.70;100.00
66021;BME280;52789;59.980;30.346;2023-08-20T02:21:33;102205.81;;;15.68;100.00
66021;BME280;52789;59.980;30.346;2023-08-20T02:23:59;102190.34;;;15.62;100.00
66021;BME280;52789;59.980;30.346;2023-08-20T02:26:24;102183.25;;;15.61;100.00
66021;BME280;52789;59.980;30.346;2023-08-20T02:28:50;102189.34;;;15.63;100.00
66021;BME280;52789;59.980;30.346;2023-08-20T02:31:15;102196.56;;;15.62;100.00
66021;BME280;52789;59.980;30.346;2023-08-20T02:33:41;102145.16;;;15.31;100.00
66021;BME280;52789;59.980;30.346;2023-08-20T02:36:06;102181.69;;;15.50;100.00
66021;BME280;52789;59.980;30.346;2023-08-20T02:38:32;102198.81;;;15.57;100.00
66021;BME280;52789;59.980;30.346;2023-08-20T02:40:57;102210.97;;;15.61;100.00
66021;BME280;52789;59.980;30.346;2023-08-20T02:43:23;102208.66;;;15.66;100.00
66021;BME280;52789;59.980;30.346;2023-08-20T02:45:48;102218.41;;;15.67;100.00
66021;BME280;52789;59.980;30.346;2023-08-20T02:48:14;102218.56;;;15.66;100.00
66021;BME280;52789;59.980;30.346;2023-08-20T02:50:40;102156.59;;;15.33;100.00
66021;BME280;52789;59.980;30.346;2023-08-20T02:53:06;102209.28;;;15.60;100.00
66021;BME280;52789;59.980;30.346;2023-08-20T02:55:32;102214.53;;;15.70;100.00
66021;BME280;52789;59.980;30.346;2023-08-20T02:57:58;102191.94;;;15.55;100.00
66021;BME280;52789;59.980;30.346;2023-08-20T03:00:24;102202.75;;;15.63;100.00
66021;BME280;52789;59.980;30.346;2023-08-20T03:02:50;102204.44;;;15.64;100.00
66021;BME280;52789;59.980;30.346;2023-08-20T03:05:16;102205.13;;;15.66;100.00
66021;BME280;52789;59.980;30.346;2023-08-20T03:07:42;102209.84;;;15.72;100.00
66021;BME280;52789;59.980;30.346;2023-08-20T03:10:07;102211.19;;;15.68;100.00
66021;BME280;52789;59.980;30.346;2023-08-20T03:12:33;102156.81;;;15.40;100.00
66021;BME280;52789;59.980;30.346;2023-08-20T03:15:01;102203.31;;;15.74;100.00
66021;BME280;52789;59.980;30.346;2023-08-20T03:17:29;102189.19;;;15.72;100.00
66021;BME280;52789;59.980;30.346;2023-08-20T03:19:57;102151.47;;;15.48;100.00
66021;BME280;52789;59.980;30.346;2023-08-20T03:22:23;102204.50;;;15.80;99.71
66021;BME280;52789;59.980;30.346;2023-08-20T03:24:49;102195.44;;;15.81;99.07
66021;BME280;52789;59.980;30.346;2023-08-20T03:27:15;102190.22;;;15.71;99.62
66021;BME280;52789;59.980;30.346;2023-08-20T03:29:41;102192.91;;;15.79;99.38
66021;BME280;52789;59.980;30.346;2023-08-20T03:32:06;102194.28;;;15.84;98.84
66021;BME280;52789;59.980;30.346;2023-08-20T03:34:31;102199.88;;;15.90;97.54
66021;BME280;52789;59.980;30.346;2023-08-20T03:36:57;102201.66;;;15.90;97.35
66021;BME280;52789;59.980;30.346;2023-08-20T03:39:22;102193.50;;;15.99;97.22
66021;BME280;52789;59.980;30.346;2023-08-20T03:41:49;102199.72;;;16.00;96.19
66021;BME280;52789;59.980;30.346;2023-08-20T03:44:15;102183.59;;;16.00;95.84
66021;BME280;52789;59.980;30.346;2023-08-20T03:46:41;102173.53;;;16.02;95.35
66021;BME280;52789;59.980;30.346;2023-08-20T03:49:06;102185.13;;;16.10;95.00
66021;BME280;52789;59.980;30.346;2023-08-20T03:51:31;102175.88;;;16.05;94.90
66021;BME280;52789;59.980;30.346;2023-08-20T03:53:57;102188.66;;;16.11;94.46
66021;BME280;52789;59.980;30.346;2023-08-20T03:56:22;102173.34;;;16.03;94.27
66021;BME280;52789;59.980;30.346;2023-08-20T03:58:48;102174.22;;;16.12;94.47
66021;BME280;52789;59.980;30.346;2023-08-20T04:01:13;102175.94;;;16.21;93.47
66021;BME280;52789;59.980;30.346;2023-08-20T04:03:39;102175.94;;;16.21;93.35
66021;BME280;52789;59.980;30.346;2023-08-20T04:06:04;102165.13;;;16.13;92.77
66021;BME280;52789;59.980;30.346;2023-08-20T04:08:30;102182.59;;;16.09;92.76
66021;BME280;52789;59.980;30.346;2023-08-20T04:10:55;102189.66;;;16.10;93.59
66021;BME280;52789;59.980;30.346;2023-08-20T04:13:21;102193.69;;;16.06;93.46
66021;BME280;52789;59.980;30.346;2023-08-20T04:15:46;102205.09;;;16.00;93.48
66021;BME280;52789;59.980;30.346;2023-08-20T04:18:12;102186.22;;;15.84;94.73
66021;BME280;52789;59.980;30.346;2023-08-20T04:20:37;102205.00;;;15.84;94.32
66021;BME280;52789;59.980;30.346;2023-08-20T04:23:03;102196.75;;;15.69;94.59
66021;BME280;52789;59.980;30.346;2023-08-20T04:25:28;102208.69;;;15.74;94.52
66021;BME280;52789;59.980;30.346;2023-08-20T04:27:54;102192.03;;;15.63;94.91
66021;BME280;52789;59.980;30.346;2023-08-20T04:30:19;102210.19;;;15.69;95.56
66021;BME280;52789;59.980;30.346;2023-08-20T04:32:45;102210.66;;;15.64;95.50
66021;BME280;52789;59.980;30.346;2023-08-20T04:35:10;102174.25;;;15.44;95.52
66021;BME280;52789;59.980;30.346;2023-08-20T04:37:36;102169.38;;;15.39;95.62
66021;BME280;52789;59.980;30.346;2023-08-20T04:40:01;102197.47;;;15.53;95.32
66021;BME280;52789;59.980;30.346;2023-08-20T04:42:30;102204.63;;;15.44;95.59
66021;BME280;52789;59.980;30.346;2023-08-20T04:44:56;102217.91;;;15.46;95.57
66021;BME280;52789;59.980;30.346;2023-08-20T04:47:21;102222.91;;;15.41;96.56
66021;BME280;52789;59.980;30.346;2023-08-20T04:49:47;102220.88;;;15.35;94.50
66021;BME280;52789;59.980;30.346;2023-08-20T04:52:12;102213.25;;;15.30;94.59
66021;BME280;52789;59.980;30.346;2023-08-20T04:54:37;102188.66;;;15.09;94.77
66021;BME280;52789;59.980;30.346;2023-08-20T04:57:03;102213.22;;;15.22;93.86
66021;BME280;52789;59.980;30.346;2023-08-20T04:59:28;102216.63;;;15.32;94.19
66021;BME280;52789;59.980;30.346;2023-08-20T05:01:54;102238.22;;;15.48;94.82
66021;BME280;52789;59.980;30.346;2023-08-20T05:04:19;102222.59;;;15.44;94.16
66021;BME280;52789;59.980;30.346;2023-08-20T05:06:45;102236.53;;;15.47;94.28
66021;BME280;52789;59.980;30.346;2023-08-20T05:09:10;102187.06;;;15.24;92.35
66021;BME280;52789;59.980;30.346;2023-08-20T05:11:36;102236.06;;;15.52;92.21
66021;BME280;52789;59.980;30.346;2023-08-20T05:14:01;102232.03;;;15.56;92.56
66021;BME280;52789;59.980;30.346;2023-08-20T05:16:27;102222.63;;;15.52;91.12
66021;BME280;52789;59.980;30.346;2023-08-20T05:18:52;102227.84;;;15.54;91.18
66021;BME280;52789;59.980;30.346;2023-08-20T05:21:18;102217.91;;;15.46;91.46
66021;BME280;52789;59.980;30.346;2023-08-20T05:23:43;102227.47;;;15.48;91.04
66021;BME280;52789;59.980;30.346;2023-08-20T05:26:09;102233.06;;;15.55;91.86
66021;BME280;52789;59.980;30.346;2023-08-20T05:28:35;102214.22;;;15.47;90.97
66021;BME280;52789;59.980;30.346;2023-08-20T05:31:00;102236.28;;;15.59;90.36
66021;BME280;52789;59.980;30.346;2023-08-20T05:33:26;102224.41;;;15.61;90.86
66021;BME280;52789;59.980;30.346;2023-08-20T05:35:51;102224.44;;;15.69;90.33
66021;BME280;52789;59.980;30.346;2023-08-20T05:38:17;102228.66;;;15.72;89.99
66021;BME280;52789;59.980;30.346;2023-08-20T05:40:43;102180.47;;;15.44;89.89
66021;BME280;52789;59.980;30.346;2023-08-20T05:43:09;102230.53;;;15.79;89.05
66021;BME280;52789;59.980;30.346;2023-08-20T05:45:35;102235.72;;;15.81;89.62
66021;BME280;52789;59.980;30.346;2023-08-20T05:48:01;102217.75;;;15.73;89.25
66021;BME280;52789;59.980;30.346;2023-08-20T05:50:26;102212.06;;;15.85;89.48
66021;BME280;52789;59.980;30.346;2023-08-20T05:52:52;102199.31;;;15.87;87.18
66021;BME280;52789;59.980;30.346;2023-08-20T05:55:18;102204.53;;;15.88;87.16
66021;BME280;52789;59.980;30.346;2023-08-20T05:57:45;102198.63;;;15.85;87.51
66021;BME280;52789;59.980;30.346;2023-08-20T06:00:10;102213.81;;;15.94;87.15
66021;BME280;52789;59.980;30.346;2023-08-20T06:02:37;102221.88;;;15.94;85.25
66021;BME280;52789;59.980;30.346;2023-08-20T06:05:03;102227.28;;;16.10;85.29
66021;BME280;52789;59.980;30.346;2023-08-20T06:07:32;102221.63;;;16.29;83.64
66021;BME280;52789;59.980;30.346;2023-08-20T06:10:01;102223.31;;;16.47;83.60
66021;BME280;52789;59.980;30.346;2023-08-20T06:12:29;102224.38;;;16.54;81.71
66021;BME280;52789;59.980;30.346;2023-08-20T06:14:54;102208.19;;;16.37;80.27
66021;BME280;52789;59.980;30.346;2023-08-20T06:17:20;102227.19;;;16.36;81.64
66021;BME280;52789;59.980;30.346;2023-08-20T06:19:46;102224.81;;;16.25;81.50
66021;BME280;52789;59.980;30.346;2023-08-20T06:22:11;102202.09;;;16.11;81.02
66021;BME280;52789;59.980;30.346;2023-08-20T06:24:36;102203.81;;;16.20;80.67
66021;BME280;52789;59.980;30.346;2023-08-20T06:27:02;102218.28;;;16.43;79.14
66021;BME280;52789;59.980;30.346;2023-08-20T06:29:28;102209.75;;;16.48;77.82
66021;BME280;52789;59.980;30.346;2023-08-20T06:31:54;102195.97;;;16.59;77.95
66021;BME280;52789;59.980;30.346;2023-08-20T06:34:19;102187.06;;;16.51;77.75
66021;BME280;52789;59.980;30.346;2023-08-20T06:36:45;102188.72;;;16.60;78.01
66021;BME280;52789;59.980;30.346;2023-08-20T06:39:10;102183.00;;;16.47;77.34
66021;BME280;52789;59.980;30.346;2023-08-20T06:41:36;102190.06;;;16.48;76.58
66021;BME280;52789;59.980;30.346;2023-08-20T06:44:02;102190.56;;;16.43;77.59
66021;BME280;52789;59.980;30.346;2023-08-20T06:46:28;102208.22;;;16.54;75.07
66021;BME280;52789;59.980;30.346;2023-08-20T06:48:53;102200.84;;;16.56;74.77
66021;BME280;52789;59.980;30.346;2023-08-20T06:51:20;102213.09;;;16.58;74.29
66021;BME280;52789;59.980;30.346;2023-08-20T06:53:46;102200.31;;;16.44;75.08
66021;BME280;52789;59.980;30.346;2023-08-20T06:56:12;102101.56;;;15.71;75.53
66021;BME280;52789;59.980;30.346;2023-08-20T06:58:39;102199.47;;;16.35;76.51
66021;BME280;52789;59.980;30.346;2023-08-20T07:01:05;102202.16;;;16.43;76.81
66021;BME280;52789;59.980;30.346;2023-08-20T07:03:34;102219.31;;;16.51;77.43
66021;BME280;52789;59.980;30.346;2023-08-20T07:06:00;102221.13;;;16.42;76.93
66021;BME280;52789;59.980;30.346;2023-08-20T07:08:25;102190.72;;;16.33;77.02
66021;BME280;52789;59.980;30.346;2023-08-20T07:10:51;102126.81;;;15.95;74.97
66021;BME280;52789;59.980;30.346;2023-08-20T07:13:16;102199.97;;;16.39;75.23
66021;BME280;52789;59.980;30.346;2023-08-20T07:15:42;102184.16;;;16.36;72.88
66021;BME280;52789;59.980;30.346;2023-08-20T07:18:07;102189.38;;;16.46;74.83
66021;BME280;52789;59.980;30.346;2023-08-20T07:20:33;102212.44;;;16.64;75.71
66021;BME280;52789;59.980;30.346;2023-08-20T07:22:58;102214.81;;;16.67;74.38
66021;BME280;52789;59.980;30.346;2023-08-20T07:25:23;102188.72;;;16.43;74.71
66021;BME280;52789;59.980;30.346;2023-08-20T07:27:49;102157.28;;;16.28;74.14
66021;BME280;52789;59.980;30.346;2023-08-20T07:30:16;102180.31;;;16.38;74.97
66021;BME280;52789;59.980;30.346;2023-08-20T07:32:41;102208.75;;;16.57;75.95
66021;BME280;52789;59.980;30.346;2023-08-20T07:35:07;102209.91;;;16.63;76.78
66021;BME280;52789;59.980;30.346;2023-08-20T07:37:33;102212.59;;;16.63;76.65
66021;BME280;52789;59.980;30.346;2023-08-20T07:39:59;102202.84;;;16.54;76.16
66021;BME280;52789;59.980;30.346;2023-08-20T07:42:24;102198.69;;;16.67;77.43
66021;BME280;52789;59.980;30.346;2023-08-20T07:44:49;102198.88;;;16.82;76.08
66021;BME280;52789;59.980;30.346;2023-08-20T07:47:15;102198.16;;;16.96;75.27
66021;BME280;52789;59.980;30.346;2023-08-20T07:49:40;102205.38;;;17.04;75.34
66021;BME280;52789;59.980;30.346;2023-08-20T07:52:06;102203.38;;;17.14;74.53
66021;BME280;52789;59.980;30.346;2023-08-20T07:54:31;102206.88;;;17.23;75.35
66021;BME280;52789;59.980;30.346;2023-08-20T07:56:57;102213.09;;;17.23;71.97
66021;BME280;52789;59.980;30.346;2023-08-20T07:59:22;102203.53;;;17.21;71.99
66021;BME280;52789;59.980;30.346;2023-08-20T08:01:48;102200.50;;;17.16;71.98
66021;BME280;52789;59.980;30.346;2023-08-20T08:04:14;102199.50;;;17.17;71.74
66021;BME280;52789;59.980;30.346;2023-08-20T08:06:40;102202.66;;;17.28;71.91
66021;BME280;52789;59.980;30.346;2023-08-20T08:09:35;102209.38;;;17.32;73.44
66021;BME280;52789;59.980;30.346;2023-08-20T08:12:01;102210.75;;;17.37;72.02
66021;BME280;52789;59.980;30.346;2023-08-20T08:14:27;102141.97;;;17.01;71.51
66021;BME280;52789;59.980;30.346;2023-08-20T08:16:52;102186.69;;;17.27;71.56
66021;BME280;52789;59.980;30.346;2023-08-20T08:19:18;102186.31;;;17.30;72.12
66021;BME280;52789;59.980;30.346;2023-08-20T08:21:45;102208.00;;;17.45;73.00
66021;BME280;52789;59.980;30.346;2023-08-20T08:24:11;102195.75;;;17.42;73.60
66021;BME280;52789;59.980;30.346;2023-08-20T08:26:36;102185.16;;;17.32;73.72
66021;BME280;52789;59.980;30.346;2023-08-20T08:29:05;102195.25;;;17.39;74.08
66021;BME280;52789;59.980;30.346;2023-08-20T08:31:31;102201.28;;;17.32;72.67
66021;BME280;52789;59.980;30.346;2023-08-20T08:33:56;102191.75;;;17.22;71.85
66021;BME280;52789;59.980;30.346;2023-08-20T08:36:22;102198.13;;;17.29;70.27
66021;BME280;52789;59.980;30.346;2023-08-20T08:38:53;102195.25;;;17.39;70.71
66021;BME280;52789;59.980;30.346;2023-08-20T08:41:19;102198.78;;;17.39;70.54
66021;BME280;52789;59.980;30.346;2023-08-20T08:43:46;102169.19;;;17.23;70.50
66021;BME280;52789;59.980;30.346;2023-08-20T08:46:13;102188.34;;;17.36;70.65
66021;BME280;52789;59.980;30.346;2023-08-20T08:48:43;102188.19;;;17.38;72.34
66021;BME280;52789;59.980;30.346;2023-08-20T08:51:09;102197.59;;;17.42;69.97
66021;BME280;52789;59.980;30.346;2023-08-20T08:53:35;102182.63;;;17.31;69.22
66021;BME280;52789;59.980;30.346;2023-08-20T08:56:02;102174.19;;;17.34;70.41
66021;BME280;52789;59.980;30.346;2023-08-20T08:58:28;102186.81;;;17.42;68.83
66021;BME280;52789;59.980;30.346;2023-08-20T09:00:53;102177.91;;;17.41;69.53
66021;BME280;52789;59.980;30.346;2023-08-20T09:03:19;102165.81;;;17.37;68.55
66021;BME280;52789;59.980;30.346;2023-08-20T09:05:49;102180.56;;;17.49;67.17
66021;BME280;52789;59.980;30.346;2023-08-20T09:08:28;102174.16;;;17.50;64.53
66021;BME280;52789;59.980;30.346;2023-08-20T09:10:55;102123.06;;;17.26;65.42
66021;BME280;52789;59.980;30.346;2023-08-20T09:13:35;102170.75;;;17.56;67.19
66021;BME280;52789;59.980;30.346;2023-08-20T09:16:03;102171.75;;;17.63;68.40
66021;BME280;52789;59.980;30.346;2023-08-20T09:18:29;102056.56;;;16.95;68.99
66021;BME280;52789;59.980;30.346;2023-08-20T09:20:57;102157.28;;;17.64;65.64
66021;BME280;52789;59.980;30.346;2023-08-20T09:23:22;102162.34;;;17.68;66.42
66021;BME280;52789;59.980;30.346;2023-08-20T09:25:48;102138.13;;;17.51;65.27
66021;BME280;52789;59.980;30.346;2023-08-20T09:28:14;102175.44;;;17.62;66.36
66021;BME280;52789;59.980;30.346;2023-08-20T09:30:39;102173.13;;;17.68;67.58
66021;BME280;52789;59.980;30.346;2023-08-20T09:33:27;102169.38;;;17.77;67.60
66021;BME280;52789;59.980;30.346;2023-08-20T09:35:53;102138.06;;;17.76;67.64
66021;BME280;52789;59.980;30.346;2023-08-20T09:38:23;102153.63;;;17.97;67.24
66021;BME280;52789;59.980;30.346;2023-08-20T09:40:53;102154.13;;;17.92;67.06
66021;BME280;52789;59.980;30.346;2023-08-20T09:43:23;102105.06;;;17.65;67.00
66021;BME280;52789;59.980;30.346;2023-08-20T09:45:55;102157.50;;;17.94;66.03
66021;BME280;52789;59.980;30.346;2023-08-20T09:48:21;102158.16;;;17.96;65.90
66021;BME280;52789;59.980;30.346;2023-08-20T09:50:49;102152.25;;;17.92;64.71
66021;BME280;52789;59.980;30.346;2023-08-20T09:53:26;102144.06;;;17.86;65.94
66021;BME280;52789;59.980;30.346;2023-08-20T09:55:52;102143.66;;;17.97;63.48
66021;BME280;52789;59.980;30.346;2023-08-20T09:58:21;102146.66;;;18.02;60.70
66021;BME280;52789;59.980;30.346;2023-08-20T10:00:51;102141.63;;;17.99;60.48
66021;BME280;52789;59.980;30.346;2023-08-20T10:03:18;102090.56;;;17.75;61.17
66021;BME280;52789;59.980;30.346;2023-08-20T10:05:46;102137.44;;;18.19;60.70
66021;BME280;52789;59.980;30.346;2023-08-20T10:08:12;102133.38;;;18.23;58.31
66021;BME280;52789;59.980;30.346;2023-08-20T10:10:38;102134.88;;;18.26;57.09
66021;BME280;52789;59.980;30.346;2023-08-20T10:13:04;102145.31;;;18.29;57.91
66021;BME280;52789;59.980;30.346;2023-08-20T10:15:29;102130.69;;;18.23;59.92
66021;BME280;52789;59.980;30.346;2023-08-20T10:17:57;102145.13;;;18.31;60.83
66021;BME280;52789;59.980;30.346;2023-08-20T10:20:23;102137.69;;;18.33;61.39
66021;BME280;52789;59.980;30.346;2023-08-20T10:22:50;102132.66;;;18.30;61.39
66021;BME280;52789;59.980;30.346;2023-08-20T10:25:23;102133.69;;;18.29;58.22
66021;BME280;52789;59.980;30.346;2023-08-20T10:27:50;102099.28;;;18.08;57.74
66021;BME280;52789;59.980;30.346;2023-08-20T10:30:25;102151.84;;;18.35;57.79
66021;BME280;52789;59.980;30.346;2023-08-20T10:32:51;102145.41;;;18.36;56.96
66021;BME280;52789;59.980;30.346;2023-08-20T10:35:27;102146.56;;;18.41;56.26
66021;BME280;52789;59.980;30.346;2023-08-20T10:40:54;102151.41;;;18.46;56.29
66021;BME280;52789;59.980;30.346;2023-08-20T10:46:17;102127.84;;;18.40;58.17
66021;BME280;52789;59.980;30.346;2023-08-20T10:49:03;102123.03;;;18.50;57.76
66021;BME280;52789;59.980;30.346;2023-08-20T10:51:32;102124.84;;;18.57;58.23
66021;BME280;52789;59.980;30.346;2023-08-20T10:56:46;102130.38;;;18.64;58.71
66021;BME280;52789;59.980;30.346;2023-08-20T10:59:15;102128.16;;;18.68;59.16
66021;BME280;52789;59.980;30.346;2023-08-20T11:01:51;102133.84;;;18.73;59.67
66021;BME280;52789;59.980;30.346;2023-08-20T11:04:18;102124.06;;;18.72;58.56
66021;BME280;52789;59.980;30.346;2023-08-20T11:06:45;102127.22;;;18.75;58.31
66021;BME280;52789;59.980;30.346;2023-08-20T11:09:11;102136.28;;;18.82;57.34
66021;BME280;52789;59.980;30.346;2023-08-20T11:11:39;102117.81;;;18.71;57.05
66021;BME280;52789;59.980;30.346;2023-08-20T11:14:12;102118.41;;;18.81;56.57
66021;BME280;52789;59.980;30.346;2023-08-20T11:16:39;102118.34;;;18.90;56.95
66021;BME280;52789;59.980;30.346;2023-08-20T11:19:05;102112.09;;;18.89;57.68
66021;BME280;52789;59.980;30.346;2023-08-20T11:21:34;102121.59;;;19.00;57.42
66021;BME280;52789;59.980;30.346;2023-08-20T11:24:03;102112.94;;;18.90;57.67
66021;BME280;52789;59.980;30.346;2023-08-20T11:26:30;102125.97;;;18.86;57.42
66021;BME280;52789;59.980;30.346;2023-08-20T11:28:55;102110.66;;;18.78;56.29
66021;BME280;52789;59.980;30.346;2023-08-20T11:31:21;102114.38;;;18.77;57.05
66021;BME280;52789;59.980;30.346;2023-08-20T11:33:47;102116.19;;;18.85;57.84
66021;BME280;52789;59.980;30.346;2023-08-20T11:36:17;102061.31;;;18.55;56.94
66021;BME280;52789;59.980;30.346;2023-08-20T11:38:42;102117.78;;;18.79;57.53
66021;BME280;52789;59.980;30.346;2023-08-20T11:41:14;102110.03;;;18.91;57.90
66021;BME280;52789;59.980;30.346;2023-08-20T11:43:41;102106.78;;;18.96;57.72
66021;BME280;52789;59.980;30.346;2023-08-20T11:46:13;102095.44;;;18.85;58.15
66021;BME280;52789;59.980;30.346;2023-08-20T11:48:39;102108.75;;;18.87;57.37
66021;BME280;52789;59.980;30.346;2023-08-20T11:51:04;102097.94;;;18.87;58.14
66021;BME280;52789;59.980;30.346;2023-08-20T11:53:30;102099.34;;;18.83;57.12
66021;BME280;52789;59.980;30.346;2023-08-20T11:55:56;102047.25;;;18.60;58.50
66021;BME280;52789;59.980;30.346;2023-08-20T11:58:22;102094.69;;;18.92;55.57
66021;BME280;52789;59.980;30.346;2023-08-20T12:00:48;102082.59;;;18.87;57.19
66021;BME280;52789;59.980;30.346;2023-08-20T12:03:15;102076.59;;;18.77;58.66
66021;BME280;52789;59.980;30.346;2023-08-20T12:05:41;102095.06;;;18.88;58.87
66021;BME280;52789;59.980;30.346;2023-08-20T12:08:14;101934.63;;;17.94;57.68
66021;BME280;52789;59.980;30.346;2023-08-20T12:10:42;102076.44;;;18.94;57.48
66021;BME280;52789;59.980;30.346;2023-08-20T12:13:08;102073.09;;;18.92;55.33
66021;BME280;52789;59.980;30.346;2023-08-20T12:15:33;102084.81;;;18.99;56.82
66021;BME280;52789;59.980;30.346;2023-08-20T12:18:04;102075.16;;;18.90;57.79
66021;BME280;52789;59.980;30.346;2023-08-20T12:20:34;102094.78;;;18.98;57.93
66021;BME280;52789;59.980;30.346;2023-08-20T12:23:05;102083.50;;;18.95;57.13
66021;BME280;52789;59.980;30.346;2023-08-20T12:25:33;102075.78;;;18.92;58.33
66021;BME280;52789;59.980;30.346;2023-08-20T12:28:02;102074.41;;;18.96;57.46
66021;BME280;52789;59.980;30.346;2023-08-20T12:30:32;102080.16;;;18.93;56.95
66021;BME280;52789;59.980;30.346;2023-08-20T12:32:57;102093.19;;;19.04;57.31
66021;BME280;52789;59.980;30.346;2023-08-20T12:35:23;102073.19;;;18.98;54.85
66021;BME280;52789;59.980;30.346;2023-08-20T12:37:48;102089.78;;;19.10;56.65
66021;BME280;52789;59.980;30.346;2023-08-20T12:40:14;102088.75;;;19.11;56.75
66021;BME280;52789;59.980;30.346;2023-08-20T12:42:39;102080.00;;;19.09;57.33
66021;BME280;52789;59.980;30.346;2023-08-20T12:45:08;102065.47;;;18.95;57.03
66021;BME280;52789;59.980;30.346;2023-08-20T12:47:35;102078.66;;;19.05;57.11
66021;BME280;52789;59.980;30.346;2023-08-20T12:50:01;102066.94;;;18.98;58.05